sensor_id;sensor_type;location;lat;lon;timestamp;P1;durP1;ratioP1;P2;durP2;ratioP2
80219;SDS011;69535;37.974;23.708;2023-05-07T00:00:00;6.47;;;4.47;;
80219;SDS011;69535;37.974;23.708;2023-05-07T00:02:26;7.05;;;4.47;;
80219;SDS011;69535;37.974;23.708;2023-05-07T00:04:51;6.03;;;4.50;;
80219;SDS011;69535;37.974;23.708;2023-05-07T00:07:17;5.32;;;4.05;;
80219;SDS011;69535;37.974;23.708;2023-05-07T00:09:43;4.95;;;4.00;;
80219;SDS011;69535;37.974;23.708;2023-05-07T00:12:09;5.68;;;4.22;;
80219;SDS011;69535;37.974;23.708;2023-05-07T00:14:35;5.80;;;4.20;;
80219;SDS011;69535;37.974;23.708;2023-05-07T00:17:00;5.13;;;4.40;;
80219;SDS011;69535;37.974;23.708;2023-05-07T00:19:26;7.50;;;4.45;;
80219;SDS011;69535;37.974;23.708;2023-05-07T00:21:52;5.75;;;4.00;;
80219;SDS011;69535;37.974;23.708;2023-05-07T00:24:21;5.47;;;4.25;;
80219;SDS011;69535;37.974;23.708;2023-05-07T00:26:47;5.68;;;4.50;;
80219;SDS011;69535;37.974;23.708;2023-05-07T00:29:12;5.32;;;4.00;;
80219;SDS011;69535;37.974;23.708;2023-05-07T00:31:38;5.10;;;4.40;;
80219;SDS011;69535;37.974;23.708;2023-05-07T00:34:04;5.32;;;4.20;;
80219;SDS011;69535;37.974;23.708;2023-05-07T00:36:29;5.47;;;4.53;;
80219;SDS011;69535;37.974;23.708;2023-05-07T00:38:56;5.15;;;4.22;;
80219;SDS011;69535;37.974;23.708;2023-05-07T00:41:24;5.88;;;4.70;;
80219;SDS011;69535;37.974;23.708;2023-05-07T00:43:49;5.70;;;4.47;;
80219;SDS011;69535;37.974;23.708;2023-05-07T00:46:16;5.75;;;4.30;;
80219;SDS011;69535;37.974;23.708;2023-05-07T00:48:43;5.80;;;4.40;;
80219;SDS011;69535;37.974;23.708;2023-05-07T00:51:10;4.68;;;4.15;;
80219;SDS011;69535;37.974;23.708;2023-05-07T00:53:36;5.80;;;4.20;;
80219;SDS011;69535;37.974;23.708;2023-05-07T00:56:02;5.07;;;4.40;;
80219;SDS011;69535;37.974;23.708;2023-05-07T00:58:29;5.30;;;4.50;;
80219;SDS011;69535;37.974;23.708;2023-05-07T01:00:55;5.57;;;4.55;;
80219;SDS011;69535;37.974;23.708;2023-05-07T01:03:21;5.65;;;4.68;;
80219;SDS011;69535;37.974;23.708;2023-05-07T01:05:46;6.88;;;4.68;;
80219;SDS011;69535;37.974;23.708;2023-05-07T01:08:13;5.47;;;4.30;;
80219;SDS011;69535;37.974;23.708;2023-05-07T01:10:40;5.60;;;4.45;;
80219;SDS011;69535;37.974;23.708;2023-05-07T01:13:08;5.07;;;4.05;;
80219;SDS011;69535;37.974;23.708;2023-05-07T01:15:35;6.15;;;4.78;;
80219;SDS011;69535;37.974;23.708;2023-05-07T01:18:01;5.47;;;4.40;;
80219;SDS011;69535;37.974;23.708;2023-05-07T01:20:28;5.60;;;4.53;;
80219;SDS011;69535;37.974;23.708;2023-05-07T01:22:54;5.20;;;4.32;;
80219;SDS011;69535;37.974;23.708;2023-05-07T01:25:21;5.03;;;4.07;;
80219;SDS011;69535;37.974;23.708;2023-05-07T01:27:47;5.90;;;4.30;;
80219;SDS011;69535;37.974;23.708;2023-05-07T01:30:13;7.03;;;4.80;;
80219;SDS011;69535;37.974;23.708;2023-05-07T01:35:16;5.35;;;4.15;;
80219;SDS011;69535;37.974;23.708;2023-05-07T01:37:45;5.90;;;4.43;;
80219;SDS011;69535;37.974;23.708;2023-05-07T01:40:12;5.35;;;4.53;;
80219;SDS011;69535;37.974;23.708;2023-05-07T01:42:38;5.68;;;4.47;;
80219;SDS011;69535;37.974;23.708;2023-05-07T01:45:05;5.25;;;4.53;;
80219;SDS011;69535;37.974;23.708;2023-05-07T01:47:31;5.45;;;4.32;;
80219;SDS011;69535;37.974;23.708;2023-05-07T01:49:58;5.82;;;4.40;;
80219;SDS011;69535;37.974;23.708;2023-05-07T01:52:24;5.97;;;4.50;;
80219;SDS011;69535;37.974;23.708;2023-05-07T01:54:50;6.93;;;4.50;;
80219;SDS011;69535;37.974;23.708;2023-05-07T01:57:16;5.85;;;4.63;;
80219;SDS011;69535;37.974;23.708;2023-05-07T01:59:41;6.40;;;4.53;;
80219;SDS011;69535;37.974;23.708;2023-05-07T02:02:07;5.65;;;4.50;;
80219;SDS011;69535;37.974;23.708;2023-05-07T02:04:33;4.95;;;4.30;;
80219;SDS011;69535;37.974;23.708;2023-05-07T02:06:58;5.38;;;4.20;;
80219;SDS011;69535;37.974;23.708;2023-05-07T02:09:24;5.72;;;4.53;;
80219;SDS011;69535;37.974;23.708;2023-05-07T02:11:50;6.03;;;4.72;;
80219;SDS011;69535;37.974;23.708;2023-05-07T02:14:16;5.82;;;4.55;;
80219;SDS011;69535;37.974;23.708;2023-05-07T02:16:41;6.20;;;4.60;;
80219;SDS011;69535;37.974;23.708;2023-05-07T02:19:07;6.05;;;4.53;;
80219;SDS011;69535;37.974;23.708;2023-05-07T02:21:33;5.70;;;4.80;;
80219;SDS011;69535;37.974;23.708;2023-05-07T02:23:58;5.57;;;4.30;;
80219;SDS011;69535;37.974;23.708;2023-05-07T02:26:24;5.13;;;4.47;;
80219;SDS011;69535;37.974;23.708;2023-05-07T02:28:50;5.75;;;4.22;;
80219;SDS011;69535;37.974;23.708;2023-05-07T02:31:17;5.93;;;4.40;;
80219;SDS011;69535;37.974;23.708;2023-05-07T02:33:42;7.63;;;4.50;;
80219;SDS011;69535;37.974;23.708;2023-05-07T02:36:08;5.45;;;4.30;;
80219;SDS011;69535;37.974;23.708;2023-05-07T02:38:34;5.50;;;4.43;;
80219;SDS011;69535;37.974;23.708;2023-05-07T02:41:00;5.40;;;4.20;;
80219;SDS011;69535;37.974;23.708;2023-05-07T02:43:26;5.75;;;4.25;;
80219;SDS011;69535;37.974;23.708;2023-05-07T02:48:32;5.57;;;4.40;;
80219;SDS011;69535;37.974;23.708;2023-05-07T02:50:58;5.68;;;4.15;;
80219;SDS011;69535;37.974;23.708;2023-05-07T02:53:25;6.45;;;4.47;;
80219;SDS011;69535;37.974;23.708;2023-05-07T02:55:52;6.18;;;4.32;;
80219;SDS011;69535;37.974;23.708;2023-05-07T02:58:18;4.95;;;4.28;;
80219;SDS011;69535;37.974;23.708;2023-05-07T03:00:44;5.97;;;4.47;;
80219;SDS011;69535;37.974;23.708;2023-05-07T03:03:09;5.85;;;4.38;;
80219;SDS011;69535;37.974;23.708;2023-05-07T03:05:35;5.97;;;4.25;;
80219;SDS011;69535;37.974;23.708;2023-05-07T03:08:01;5.40;;;4.30;;
80219;SDS011;69535;37.974;23.708;2023-05-07T03:10:28;5.72;;;4.43;;
80219;SDS011;69535;37.974;23.708;2023-05-07T03:12:54;6.28;;;4.57;;
80219;SDS011;69535;37.974;23.708;2023-05-07T03:15:20;5.03;;;4.35;;
80219;SDS011;69535;37.974;23.708;2023-05-07T03:17:46;6.45;;;4.80;;
80219;SDS011;69535;37.974;23.708;2023-05-07T03:20:12;5.07;;;4.22;;
80219;SDS011;69535;37.974;23.708;2023-05-07T03:22:38;5.80;;;4.55;;
80219;SDS011;69535;37.974;23.708;2023-05-07T03:25:04;6.32;;;4.43;;
80219;SDS011;69535;37.974;23.708;2023-05-07T03:27:31;7.70;;;4.40;;
80219;SDS011;69535;37.974;23.708;2023-05-07T03:29:57;7.72;;;4.50;;
80219;SDS011;69535;37.974;23.708;2023-05-07T03:32:22;5.35;;;4.35;;
80219;SDS011;69535;37.974;23.708;2023-05-07T03:34:48;5.35;;;4.40;;
80219;SDS011;69535;37.974;23.708;2023-05-07T03:37:14;5.50;;;4.50;;
80219;SDS011;69535;37.974;23.708;2023-05-07T03:39:40;5.68;;;4.22;;
80219;SDS011;69535;37.974;23.708;2023-05-07T03:42:05;5.88;;;4.28;;
80219;SDS011;69535;37.974;23.708;2023-05-07T03:44:31;6.22;;;4.38;;
80219;SDS011;69535;37.974;23.708;2023-05-07T03:46:57;5.40;;;4.40;;
80219;SDS011;69535;37.974;23.708;2023-05-07T03:49:23;5.95;;;4.40;;
80219;SDS011;69535;37.974;23.708;2023-05-07T03:51:48;5.78;;;4.40;;
80219;SDS011;69535;37.974;23.708;2023-05-07T03:54:14;6.10;;;4.30;;
80219;SDS011;69535;37.974;23.708;2023-05-07T03:56:40;6.68;;;4.38;;
80219;SDS011;69535;37.974;23.708;2023-05-07T03:59:05;6.40;;;4.20;;
80219;SDS011;69535;37.974;23.708;2023-05-07T04:01:31;7.03;;;4.30;;
80219;SDS011;69535;37.974;23.708;2023-05-07T04:03:56;5.88;;;4.25;;
80219;SDS011;69535;37.974;23.708;2023-05-07T04:06:22;4.82;;;3.92;;
80219;SDS011;69535;37.974;23.708;2023-05-07T04:08:48;10.38;;;4.07;;
80219;SDS011;69535;37.974;23.708;2023-05-07T04:11:14;6.00;;;4.15;;
80219;SDS011;69535;37.974;23.708;2023-05-07T04:13:39;6.25;;;4.05;;
80219;SDS011;69535;37.974;23.708;2023-05-07T04:16:05;4.43;;;3.75;;
80219;SDS011;69535;37.974;23.708;2023-05-07T04:18:31;5.25;;;3.97;;
80219;SDS011;69535;37.974;23.708;2023-05-07T04:20:57;5.03;;;4.05;;
80219;SDS011;69535;37.974;23.708;2023-05-07T04:23:22;9.35;;;4.20;;
80219;SDS011;69535;37.974;23.708;2023-05-07T04:25:48;6.20;;;4.15;;
80219;SDS011;69535;37.974;23.708;2023-05-07T04:28:15;5.18;;;3.88;;
80219;SDS011;69535;37.974;23.708;2023-05-07T04:30:40;5.45;;;4.15;;
80219;SDS011;69535;37.974;23.708;2023-05-07T04:33:06;6.43;;;4.00;;
80219;SDS011;69535;37.974;23.708;2023-05-07T04:35:32;7.82;;;3.70;;
80219;SDS011;69535;37.974;23.708;2023-05-07T04:37:58;6.05;;;4.22;;
80219;SDS011;69535;37.974;23.708;2023-05-07T04:40:24;5.45;;;4.20;;
80219;SDS011;69535;37.974;23.708;2023-05-07T04:42:49;6.00;;;3.90;;
80219;SDS011;69535;37.974;23.708;2023-05-07T04:45:16;6.15;;;4.13;;
80219;SDS011;69535;37.974;23.708;2023-05-07T04:47:42;4.88;;;3.70;;
80219;SDS011;69535;37.974;23.708;2023-05-07T04:50:07;4.80;;;3.75;;
80219;SDS011;69535;37.974;23.708;2023-05-07T04:52:33;5.07;;;3.63;;
80219;SDS011;69535;37.974;23.708;2023-05-07T04:54:59;5.20;;;3.60;;
80219;SDS011;69535;37.974;23.708;2023-05-07T04:57:26;5.28;;;3.70;;
80219;SDS011;69535;37.974;23.708;2023-05-07T04:59:52;4.95;;;3.60;;
80219;SDS011;69535;37.974;23.708;2023-05-07T05:02:18;5.68;;;3.80;;
80219;SDS011;69535;37.974;23.708;2023-05-07T05:04:44;5.72;;;3.70;;
80219;SDS011;69535;37.974;23.708;2023-05-07T05:07:10;4.82;;;3.72;;
80219;SDS011;69535;37.974;23.708;2023-05-07T05:09:35;4.65;;;3.50;;
80219;SDS011;69535;37.974;23.708;2023-05-07T05:12:01;4.45;;;3.63;;
80219;SDS011;69535;37.974;23.708;2023-05-07T05:14:27;4.68;;;3.55;;
80219;SDS011;69535;37.974;23.708;2023-05-07T05:16:53;4.82;;;3.50;;
80219;SDS011;69535;37.974;23.708;2023-05-07T05:19:19;4.90;;;3.65;;
80219;SDS011;69535;37.974;23.708;2023-05-07T05:21:44;3.95;;;3.47;;
80219;SDS011;69535;37.974;23.708;2023-05-07T05:24:10;4.43;;;3.60;;
80219;SDS011;69535;37.974;23.708;2023-05-07T05:26:36;6.38;;;3.25;;
80219;SDS011;69535;37.974;23.708;2023-05-07T05:29:01;4.28;;;3.42;;
80219;SDS011;69535;37.974;23.708;2023-05-07T05:31:27;5.20;;;3.50;;
80219;SDS011;69535;37.974;23.708;2023-05-07T05:33:53;5.97;;;3.72;;
80219;SDS011;69535;37.974;23.708;2023-05-07T05:36:18;4.70;;;3.40;;
80219;SDS011;69535;37.974;23.708;2023-05-07T05:38:44;4.38;;;3.28;;
80219;SDS011;69535;37.974;23.708;2023-05-07T05:41:10;5.22;;;3.53;;
80219;SDS011;69535;37.974;23.708;2023-05-07T05:43:36;4.28;;;3.63;;
80219;SDS011;69535;37.974;23.708;2023-05-07T05:46:02;4.95;;;3.70;;
80219;SDS011;69535;37.974;23.708;2023-05-07T05:48:29;5.70;;;3.45;;
80219;SDS011;69535;37.974;23.708;2023-05-07T05:50:55;6.15;;;3.70;;
80219;SDS011;69535;37.974;23.708;2023-05-07T05:53:21;4.97;;;3.58;;
80219;SDS011;69535;37.974;23.708;2023-05-07T05:55:47;5.20;;;3.60;;
80219;SDS011;69535;37.974;23.708;2023-05-07T05:58:12;7.80;;;3.60;;
80219;SDS011;69535;37.974;23.708;2023-05-07T06:00:40;4.45;;;3.65;;
80219;SDS011;69535;37.974;23.708;2023-05-07T06:03:05;3.95;;;3.42;;
80219;SDS011;69535;37.974;23.708;2023-05-07T06:05:31;3.75;;;3.33;;
80219;SDS011;69535;37.974;23.708;2023-05-07T06:07:57;5.57;;;3.40;;
80219;SDS011;69535;37.974;23.708;2023-05-07T06:10:22;4.90;;;3.30;;
80219;SDS011;69535;37.974;23.708;2023-05-07T06:12:49;5.80;;;3.35;;
80219;SDS011;69535;37.974;23.708;2023-05-07T06:15:15;5.05;;;3.55;;
80219;SDS011;69535;37.974;23.708;2023-05-07T06:17:40;5.03;;;3.40;;
80219;SDS011;69535;37.974;23.708;2023-05-07T06:20:06;5.75;;;3.28;;
80219;SDS011;69535;37.974;23.708;2023-05-07T06:22:32;3.85;;;3.35;;
80219;SDS011;69535;37.974;23.708;2023-05-07T06:24:58;6.05;;;3.58;;
80219;SDS011;69535;37.974;23.708;2023-05-07T06:27:24;4.22;;;3.50;;
80219;SDS011;69535;37.974;23.708;2023-05-07T06:29:50;4.72;;;3.22;;
80219;SDS011;69535;37.974;23.708;2023-05-07T06:32:15;4.65;;;3.42;;
80219;SDS011;69535;37.974;23.708;2023-05-07T06:34:42;4.18;;;3.17;;
80219;SDS011;69535;37.974;23.708;2023-05-07T06:37:07;4.35;;;3.60;;
80219;SDS011;69535;37.974;23.708;2023-05-07T06:39:33;5.25;;;3.50;;
80219;SDS011;69535;37.974;23.708;2023-05-07T06:42:00;3.67;;;3.10;;
80219;SDS011;69535;37.974;23.708;2023-05-07T06:44:27;3.88;;;3.28;;
80219;SDS011;69535;37.974;23.708;2023-05-07T06:46:53;4.05;;;3.13;;
80219;SDS011;69535;37.974;23.708;2023-05-07T06:49:18;4.38;;;3.20;;
80219;SDS011;69535;37.974;23.708;2023-05-07T06:51:44;6.38;;;3.17;;
80219;SDS011;69535;37.974;23.708;2023-05-07T06:54:10;4.53;;;3.22;;
80219;SDS011;69535;37.974;23.708;2023-05-07T06:56:35;4.47;;;3.10;;
80219;SDS011;69535;37.974;23.708;2023-05-07T06:59:01;4.00;;;3.10;;
80219;SDS011;69535;37.974;23.708;2023-05-07T07:01:28;3.85;;;3.20;;
80219;SDS011;69535;37.974;23.708;2023-05-07T07:03:53;4.70;;;3.20;;
80219;SDS011;69535;37.974;23.708;2023-05-07T07:06:19;4.20;;;3.22;;
80219;SDS011;69535;37.974;23.708;2023-05-07T07:08:45;4.40;;;3.30;;
80219;SDS011;69535;37.974;23.708;2023-05-07T07:11:11;5.45;;;3.42;;
80219;SDS011;69535;37.974;23.708;2023-05-07T07:13:37;5.07;;;3.30;;
80219;SDS011;69535;37.974;23.708;2023-05-07T07:16:02;5.40;;;3.20;;
80219;SDS011;69535;37.974;23.708;2023-05-07T07:18:28;6.15;;;3.67;;
80219;SDS011;69535;37.974;23.708;2023-05-07T07:20:54;3.30;;;3.00;;
80219;SDS011;69535;37.974;23.708;2023-05-07T07:23:20;3.22;;;2.92;;
80219;SDS011;69535;37.974;23.708;2023-05-07T07:25:46;3.75;;;2.97;;
80219;SDS011;69535;37.974;23.708;2023-05-07T07:28:11;3.95;;;2.92;;
80219;SDS011;69535;37.974;23.708;2023-05-07T07:30:38;7.03;;;3.10;;
80219;SDS011;69535;37.974;23.708;2023-05-07T07:33:03;4.10;;;2.92;;
80219;SDS011;69535;37.974;23.708;2023-05-07T07:35:30;3.90;;;3.13;;
80219;SDS011;69535;37.974;23.708;2023-05-07T07:37:59;3.65;;;3.00;;
80219;SDS011;69535;37.974;23.708;2023-05-07T07:40:25;3.97;;;3.05;;
80219;SDS011;69535;37.974;23.708;2023-05-07T07:42:51;4.18;;;3.35;;
80219;SDS011;69535;37.974;23.708;2023-05-07T07:45:17;4.45;;;2.95;;
80219;SDS011;69535;37.974;23.708;2023-05-07T07:47:43;4.70;;;3.22;;
80219;SDS011;69535;37.974;23.708;2023-05-07T07:50:09;3.60;;;3.05;;
80219;SDS011;69535;37.974;23.708;2023-05-07T07:52:35;4.13;;;3.08;;
80219;SDS011;69535;37.974;23.708;2023-05-07T07:55:01;4.75;;;3.20;;
80219;SDS011;69535;37.974;23.708;2023-05-07T07:57:27;5.65;;;3.50;;
80219;SDS011;69535;37.974;23.708;2023-05-07T07:59:52;6.00;;;3.13;;
80219;SDS011;69535;37.974;23.708;2023-05-07T08:02:18;7.28;;;3.20;;
80219;SDS011;69535;37.974;23.708;2023-05-07T08:04:44;4.30;;;3.08;;
80219;SDS011;69535;37.974;23.708;2023-05-07T08:07:10;6.72;;;3.50;;
80219;SDS011;69535;37.974;23.708;2023-05-07T08:09:37;3.55;;;2.90;;
80219;SDS011;69535;37.974;23.708;2023-05-07T08:12:05;5.22;;;3.15;;
80219;SDS011;69535;37.974;23.708;2023-05-07T08:14:31;4.75;;;2.92;;
80219;SDS011;69535;37.974;23.708;2023-05-07T08:16:57;4.50;;;3.17;;
80219;SDS011;69535;37.974;23.708;2023-05-07T08:19:22;10.10;;;2.97;;
80219;SDS011;69535;37.974;23.708;2023-05-07T08:21:48;6.90;;;3.33;;
80219;SDS011;69535;37.974;23.708;2023-05-07T08:24:14;5.13;;;3.20;;
80219;SDS011;69535;37.974;23.708;2023-05-07T08:26:40;6.82;;;3.00;;
80219;SDS011;69535;37.974;23.708;2023-05-07T08:29:06;6.97;;;3.50;;
80219;SDS011;69535;37.974;23.708;2023-05-07T08:31:32;6.70;;;3.10;;
80219;SDS011;69535;37.974;23.708;2023-05-07T08:33:58;3.80;;;3.08;;
80219;SDS011;69535;37.974;23.708;2023-05-07T08:36:24;4.97;;;3.15;;
80219;SDS011;69535;37.974;23.708;2023-05-07T08:38:53;3.70;;;3.30;;
80219;SDS011;69535;37.974;23.708;2023-05-07T08:41:19;5.65;;;3.20;;
80219;SDS011;69535;37.974;23.708;2023-05-07T08:43:49;4.07;;;3.03;;
80219;SDS011;69535;37.974;23.708;2023-05-07T08:46:18;5.32;;;3.58;;
80219;SDS011;69535;37.974;23.708;2023-05-07T08:48:47;6.28;;;3.10;;
80219;SDS011;69535;37.974;23.708;2023-05-07T08:51:15;5.25;;;3.10;;
80219;SDS011;69535;37.974;23.708;2023-05-07T08:53:42;5.28;;;3.40;;
80219;SDS011;69535;37.974;23.708;2023-05-07T08:56:08;3.25;;;2.90;;
80219;SDS011;69535;37.974;23.708;2023-05-07T08:58:35;3.42;;;3.13;;
80219;SDS011;69535;37.974;23.708;2023-05-07T09:01:02;5.07;;;2.88;;
80219;SDS011;69535;37.974;23.708;2023-05-07T09:03:32;4.00;;;2.80;;
80219;SDS011;69535;37.974;23.708;2023-05-07T09:05:58;3.53;;;3.03;;
80219;SDS011;69535;37.974;23.708;2023-05-07T09:08:26;5.53;;;3.50;;
80219;SDS011;69535;37.974;23.708;2023-05-07T09:10:53;4.65;;;3.25;;
80219;SDS011;69535;37.974;23.708;2023-05-07T09:13:19;5.13;;;3.40;;
80219;SDS011;69535;37.974;23.708;2023-05-07T09:15:45;6.85;;;3.38;;
80219;SDS011;69535;37.974;23.708;2023-05-07T09:18:14;3.78;;;2.97;;
80219;SDS011;69535;37.974;23.708;2023-05-07T09:20:41;4.22;;;2.78;;
80219;SDS011;69535;37.974;23.708;2023-05-07T09:23:07;4.95;;;3.17;;
80219;SDS011;69535;37.974;23.708;2023-05-07T09:25:34;6.82;;;3.10;;
80219;SDS011;69535;37.974;23.708;2023-05-07T09:28:00;3.42;;;2.70;;
80219;SDS011;69535;37.974;23.708;2023-05-07T09:30:31;3.58;;;2.78;;
80219;SDS011;69535;37.974;23.708;2023-05-07T09:33:00;5.20;;;3.20;;
80219;SDS011;69535;37.974;23.708;2023-05-07T09:35:28;4.45;;;3.10;;
80219;SDS011;69535;37.974;23.708;2023-05-07T09:37:58;3.63;;;3.03;;
80219;SDS011;69535;37.974;23.708;2023-05-07T09:40:26;4.70;;;2.90;;
80219;SDS011;69535;37.974;23.708;2023-05-07T09:42:54;3.72;;;3.20;;
80219;SDS011;69535;37.974;23.708;2023-05-07T09:45:29;4.72;;;3.28;;
80219;SDS011;69535;37.974;23.708;2023-05-07T09:47:57;3.55;;;3.00;;
80219;SDS011;69535;37.974;23.708;2023-05-07T09:50:27;3.95;;;3.03;;
80219;SDS011;69535;37.974;23.708;2023-05-07T09:52:55;4.45;;;3.20;;
80219;SDS011;69535;37.974;23.708;2023-05-07T09:55:21;4.95;;;3.17;;
80219;SDS011;69535;37.974;23.708;2023-05-07T09:57:51;3.95;;;3.35;;
80219;SDS011;69535;37.974;23.708;2023-05-07T10:00:20;3.97;;;3.20;;
80219;SDS011;69535;37.974;23.708;2023-05-07T10:02:51;4.38;;;3.30;;
80219;SDS011;69535;37.974;23.708;2023-05-07T10:05:18;4.60;;;3.22;;
80219;SDS011;69535;37.974;23.708;2023-05-07T10:07:45;5.05;;;3.28;;
80219;SDS011;69535;37.974;23.708;2023-05-07T10:10:11;5.53;;;3.00;;
80219;SDS011;69535;37.974;23.708;2023-05-07T10:12:38;7.50;;;3.60;;
80219;SDS011;69535;37.974;23.708;2023-05-07T10:15:08;3.50;;;3.00;;
80219;SDS011;69535;37.974;23.708;2023-05-07T10:17:39;4.57;;;3.15;;
80219;SDS011;69535;37.974;23.708;2023-05-07T10:20:06;4.22;;;2.78;;
80219;SDS011;69535;37.974;23.708;2023-05-07T10:22:41;4.25;;;3.10;;
80219;SDS011;69535;37.974;23.708;2023-05-07T10:25:14;5.15;;;3.30;;
80219;SDS011;69535;37.974;23.708;2023-05-07T10:27:42;5.43;;;3.40;;
80219;SDS011;69535;37.974;23.708;2023-05-07T10:30:26;3.60;;;2.97;;
80219;SDS011;69535;37.974;23.708;2023-05-07T10:33:06;4.45;;;3.30;;
80219;SDS011;69535;37.974;23.708;2023-05-07T10:35:40;5.40;;;3.33;;
80219;SDS011;69535;37.974;23.708;2023-05-07T10:38:08;4.85;;;2.90;;
80219;SDS011;69535;37.974;23.708;2023-05-07T10:40:34;4.82;;;3.00;;
80219;SDS011;69535;37.974;23.708;2023-05-07T10:43:01;5.38;;;3.00;;
80219;SDS011;69535;37.974;23.708;2023-05-07T10:45:29;5.20;;;3.20;;
80219;SDS011;69535;37.974;23.708;2023-05-07T10:48:12;4.43;;;3.38;;
80219;SDS011;69535;37.974;23.708;2023-05-07T10:50:42;5.15;;;3.20;;
80219;SDS011;69535;37.974;23.708;2023-05-07T10:55:47;3.85;;;3.28;;
80219;SDS011;69535;37.974;23.708;2023-05-07T10:58:24;4.60;;;3.70;;
80219;SDS011;69535;37.974;23.708;2023-05-07T11:00:55;4.30;;;3.22;;
80219;SDS011;69535;37.974;23.708;2023-05-07T11:03:22;4.45;;;3.38;;
80219;SDS011;69535;37.974;23.708;2023-05-07T11:05:48;4.75;;;3.22;;
80219;SDS011;69535;37.974;23.708;2023-05-07T11:08:52;4.25;;;3.17;;
80219;SDS011;69535;37.974;23.708;2023-05-07T11:11:18;4.20;;;3.38;;
80219;SDS011;69535;37.974;23.708;2023-05-07T11:13:47;5.60;;;3.60;;
80219;SDS011;69535;37.974;23.708;2023-05-07T11:16:21;4.25;;;3.45;;
80219;SDS011;69535;37.974;23.708;2023-05-07T11:18:52;4.53;;;3.40;;
80219;SDS011;69535;37.974;23.708;2023-05-07T11:24:03;4.53;;;3.40;;
80219;SDS011;69535;37.974;23.708;2023-05-07T11:26:31;4.43;;;3.30;;
80219;SDS011;69535;37.974;23.708;2023-05-07T11:29:19;4.25;;;3.17;;
80219;SDS011;69535;37.974;23.708;2023-05-07T11:31:49;4.15;;;3.40;;
80219;SDS011;69535;37.974;23.708;2023-05-07T11:34:23;5.55;;;3.60;;
80219;SDS011;69535;37.974;23.708;2023-05-07T11:36:50;4.63;;;3.40;;
80219;SDS011;69535;37.974;23.708;2023-05-07T11:39:23;4.57;;;3.30;;
80219;SDS011;69535;37.974;23.708;2023-05-07T11:41:57;4.63;;;3.30;;
80219;SDS011;69535;37.974;23.708;2023-05-07T11:44:24;5.10;;;3.42;;
80219;SDS011;69535;37.974;23.708;2023-05-07T11:46:50;4.60;;;3.47;;
80219;SDS011;69535;37.974;23.708;2023-05-07T11:49:16;4.30;;;3.53;;
80219;SDS011;69535;37.974;23.708;2023-05-07T11:51:42;6.25;;;3.15;;
80219;SDS011;69535;37.974;23.708;2023-05-07T11:54:08;5.68;;;3.60;;
80219;SDS011;69535;37.974;23.708;2023-05-07T11:56:36;4.97;;;3.40;;
80219;SDS011;69535;37.974;23.708;2023-05-07T11:59:02;5.13;;;3.60;;
80219;SDS011;69535;37.974;23.708;2023-05-07T12:01:28;6.47;;;3.53;;
80219;SDS011;69535;37.974;23.708;2023-05-07T12:03:54;5.03;;;3.50;;
80219;SDS011;69535;37.974;23.708;2023-05-07T12:06:20;4.05;;;3.47;;
80219;SDS011;69535;37.974;23.708;2023-05-07T12:08:46;6.65;;;3.50;;
80219;SDS011;69535;37.974;23.708;2023-05-07T12:11:15;4.60;;;3.33;;
80219;SDS011;69535;37.974;23.708;2023-05-07T12:13:47;5.95;;;3.53;;
80219;SDS011;69535;37.974;23.708;2023-05-07T12:16:12;4.35;;;3.50;;
80219;SDS011;69535;37.974;23.708;2023-05-07T12:18:39;5.72;;;3.72;;
80219;SDS011;69535;37.974;23.708;2023-05-07T12:21:05;4.68;;;3.90;;
80219;SDS011;69535;37.974;23.708;2023-05-07T12:23:32;5.97;;;3.67;;
80219;SDS011;69535;37.974;23.708;2023-05-07T12:26:01;5.20;;;3.78;;
80219;SDS011;69535;37.974;23.708;2023-05-07T12:28:28;4.55;;;3.53;;
80219;SDS011;69535;37.974;23.708;2023-05-07T12:30:53;5.70;;;3.60;;
80219;SDS011;69535;37.974;23.708;2023-05-07T12:33:23;5.80;;;3.55;;
80219;SDS011;69535;37.974;23.708;2023-05-07T12:35:50;4.68;;;3.50;;
80219;SDS011;69535;37.974;23.708;2023-05-07T12:38:19;6.50;;;3.83;;
80219;SDS011;69535;37.974;23.708;2023-05-07T12:40:45;5.38;;;3.60;;
80219;SDS011;69535;37.974;23.708;2023-05-07T12:43:25;4.45;;;3.30;;
80219;SDS011;69535;37.974;23.708;2023-05-07T12:45:55;4.53;;;3.53;;
80219;SDS011;69535;37.974;23.708;2023-05-07T12:48:23;5.22;;;3.33;;
80219;SDS011;69535;37.974;23.708;2023-05-07T12:50:55;5.15;;;3.67;;
80219;SDS011;69535;37.974;23.708;2023-05-07T12:53:22;5.32;;;3.58;;
80219;SDS011;69535;37.974;23.708;2023-05-07T12:55:51;4.60;;;3.40;;
80219;SDS011;69535;37.974;23.708;2023-05-07T12:58:25;4.63;;;3.30;;
80219;SDS011;69535;37.974;23.708;2023-05-07T13:00:56;5.03;;;3.60;;
80219;SDS011;69535;37.974;23.708;2023-05-07T13:03:28;4.45;;;3.40;;
80219;SDS011;69535;37.974;23.708;2023-05-07T13:06:00;4.30;;;3.60;;
80219;SDS011;69535;37.974;23.708;2023-05-07T13:10:53;5.00;;;3.50;;
80219;SDS011;69535;37.974;23.708;2023-05-07T13:13:19;5.28;;;3.22;;
80219;SDS011;69535;37.974;23.708;2023-05-07T13:15:46;4.10;;;3.53;;
80219;SDS011;69535;37.974;23.708;2023-05-07T13:18:12;5.78;;;3.90;;
80219;SDS011;69535;37.974;23.708;2023-05-07T13:20:38;5.25;;;3.50;;
80219;SDS011;69535;37.974;23.708;2023-05-07T13:23:04;5.43;;;3.55;;
80219;SDS011;69535;37.974;23.708;2023-05-07T13:25:29;4.45;;;3.53;;
80219;SDS011;69535;37.974;23.708;2023-05-07T13:27:58;5.65;;;3.38;;
80219;SDS011;69535;37.974;23.708;2023-05-07T13:30:24;4.50;;;3.50;;
80219;SDS011;69535;37.974;23.708;2023-05-07T13:32:50;4.43;;;3.28;;
80219;SDS011;69535;37.974;23.708;2023-05-07T13:35:17;6.82;;;3.85;;
80219;SDS011;69535;37.974;23.708;2023-05-07T13:37:43;6.32;;;3.60;;
80219;SDS011;69535;37.974;23.708;2023-05-07T13:40:08;4.50;;;3.40;;
80219;SDS011;69535;37.974;23.708;2023-05-07T13:42:34;6.45;;;3.55;;
80219;SDS011;69535;37.974;23.708;2023-05-07T13:45:00;6.03;;;3.78;;
80219;SDS011;69535;37.974;23.708;2023-05-07T13:47:28;4.72;;;3.50;;
80219;SDS011;69535;37.974;23.708;2023-05-07T13:49:53;4.70;;;3.50;;
80219;SDS011;69535;37.974;23.708;2023-05-07T13:52:19;7.03;;;3.70;;
80219;SDS011;69535;37.974;23.708;2023-05-07T13:54:45;5.88;;;3.53;;
80219;SDS011;69535;37.974;23.708;2023-05-07T13:57:11;3.55;;;3.20;;
80219;SDS011;69535;37.974;23.708;2023-05-07T13:59:36;5.13;;;3.53;;
80219;SDS011;69535;37.974;23.708;2023-05-07T14:02:02;4.20;;;3.38;;
80219;SDS011;69535;37.974;23.708;2023-05-07T14:04:28;4.47;;;3.60;;
80219;SDS011;69535;37.974;23.708;2023-05-07T14:06:55;5.63;;;3.65;;
80219;SDS011;69535;37.974;23.708;2023-05-07T14:09:21;5.60;;;3.40;;
80219;SDS011;69535;37.974;23.708;2023-05-07T14:11:47;5.15;;;3.17;;
80219;SDS011;69535;37.974;23.708;2023-05-07T14:14:16;5.18;;;3.75;;
80219;SDS011;69535;37.974;23.708;2023-05-07T14:16:42;4.22;;;3.40;;
80219;SDS011;69535;37.974;23.708;2023-05-07T14:19:08;4.05;;;3.45;;
80219;SDS011;69535;37.974;23.708;2023-05-07T14:21:33;8.20;;;3.40;;
80219;SDS011;69535;37.974;23.708;2023-05-07T14:23:59;4.82;;;3.67;;
80219;SDS011;69535;37.974;23.708;2023-05-07T14:26:25;6.30;;;3.97;;
80219;SDS011;69535;37.974;23.708;2023-05-07T14:28:52;6.57;;;3.70;;
80219;SDS011;69535;37.974;23.708;2023-05-07T14:31:20;4.68;;;3.40;;
80219;SDS011;69535;37.974;23.708;2023-05-07T14:33:46;4.60;;;3.40;;
80219;SDS011;69535;37.974;23.708;2023-05-07T14:36:12;5.47;;;3.20;;
80219;SDS011;69535;37.974;23.708;2023-05-07T14:38:37;4.60;;;3.20;;
80219;SDS011;69535;37.974;23.708;2023-05-07T14:41:03;4.68;;;3.70;;
80219;SDS011;69535;37.974;23.708;2023-05-07T14:43:29;5.88;;;3.53;;